createdAt,value
2022-08-30T00:01:28.755Z,21.50
2022-08-30T00:04:30.811Z,21.50
2022-08-30T00:07:32.808Z,21.50
2022-08-30T00:10:34.917Z,21.50
2022-08-30T00:13:42.666Z,21.50
2022-08-30T00:16:44.758Z,21.50
2022-08-30T00:19:46.797Z,21.40
2022-08-30T00:22:49.324Z,21.40
2022-08-30T00:25:53.648Z,21.40
2022-08-30T00:28:55.601Z,21.50
2022-08-30T00:31:57.769Z,21.50
2022-08-30T00:34:59.891Z,21.40
2022-08-30T00:38:02.026Z,21.40
2022-08-30T00:41:06.176Z,21.40
2022-08-30T00:44:08.077Z,21.50
2022-08-30T00:47:10.888Z,21.40
2022-08-30T00:50:15.064Z,21.40
2022-08-30T00:53:21.704Z,21.50
2022-08-30T00:56:28.825Z,21.50
2022-08-30T00:59:31.852Z,21.50
2022-08-30T01:02:34.081Z,21.40
2022-08-30T01:05:39.693Z,21.40
2022-08-30T01:08:42.707Z,21.40
2022-08-30T01:11:46.246Z,21.20
2022-08-30T01:14:49.100Z,21.30
2022-08-30T01:17:51.220Z,21.20
2022-08-30T01:21:10.974Z,21.20
2022-08-30T01:24:13.676Z,21.20
2022-08-30T01:27:17.567Z,21.30
2022-08-30T01:30:19.928Z,21.50
2022-08-30T01:33:22.742Z,21.30
2022-08-30T01:36:24.943Z,21.20
2022-08-30T01:39:27.318Z,21.00
2022-08-30T01:42:29.382Z,21.00
2022-08-30T01:45:31.311Z,21.00
2022-08-30T01:48:33.716Z,21.10
2022-08-30T01:51:38.476Z,21.00
2022-08-30T01:54:42.724Z,21.00
2022-08-30T01:57:44.700Z,20.90
2022-08-30T02:00:46.647Z,20.90
2022-08-30T02:03:49.006Z,20.90
2022-08-30T02:06:51.060Z,20.70
2022-08-30T02:09:54.132Z,20.80
2022-08-30T02:12:56.218Z,20.80
2022-08-30T02:15:58.698Z,20.80
2022-08-30T02:19:00.684Z,20.90
2022-08-30T02:22:02.904Z,20.90
2022-08-30T02:25:07.145Z,20.70
2022-08-30T02:28:22.674Z,20.60
2022-08-30T02:31:27.009Z,20.60
2022-08-30T02:34:28.959Z,20.50
2022-08-30T02:37:30.955Z,20.50
2022-08-30T02:40:34.289Z,20.40
2022-08-30T02:43:36.269Z,20.40
2022-08-30T02:46:38.669Z,20.50
2022-08-30T02:49:40.612Z,20.50
2022-08-30T02:52:42.810Z,20.50
2022-08-30T02:55:47.893Z,20.50
2022-08-30T02:58:49.759Z,20.30
2022-08-30T03:01:51.664Z,20.30
2022-08-30T03:04:53.660Z,20.30
2022-08-30T03:07:55.728Z,20.30
2022-08-30T03:10:57.698Z,20.20
2022-08-30T03:13:59.686Z,20.20
2022-08-30T03:17:01.934Z,20.20
2022-08-30T03:20:04.834Z,20.40
2022-08-30T03:23:10.274Z,20.30
2022-08-30T03:26:23.298Z,20.30
2022-08-30T03:29:25.526Z,20.40
2022-08-30T03:32:27.454Z,20.20
2022-08-30T03:35:33.307Z,20.30
2022-08-30T03:38:36.170Z,20.20
2022-08-30T03:41:38.122Z,20.20
2022-08-30T03:44:41.270Z,20.30
2022-08-30T03:47:43.582Z,20.40
2022-08-30T03:50:45.533Z,20.30
2022-08-30T03:53:47.358Z,20.30
2022-08-30T03:56:49.401Z,20.20
2022-08-30T03:59:51.455Z,20.20
2022-08-30T04:02:53.456Z,20.20
2022-08-30T04:05:56.155Z,20.20
2022-08-30T04:08:58.033Z,20.20
2022-08-30T04:11:59.911Z,20.20
2022-08-30T04:15:02.362Z,20.10
2022-08-30T04:18:04.255Z,20.00
2022-08-30T04:21:06.587Z,20.00
2022-08-30T04:24:09.094Z,20.00
2022-08-30T04:27:11.110Z,19.90
2022-08-30T04:30:17.035Z,19.90
2022-08-30T04:33:19.966Z,19.90
2022-08-30T04:36:21.966Z,19.80
2022-08-30T04:39:26.214Z,19.90
2022-08-30T04:42:30.833Z,20.00
2022-08-30T04:45:33.088Z,19.90
2022-08-30T04:48:36.816Z,19.90
2022-08-30T04:51:38.988Z,20.00
2022-08-30T04:54:40.957Z,20.10
2022-08-30T04:57:43.286Z,20.10
2022-08-30T05:00:45.329Z,20.00
2022-08-30T05:03:49.167Z,19.90
2022-08-30T05:06:51.363Z,19.60
2022-08-30T05:09:53.310Z,19.70
2022-08-30T05:12:56.251Z,19.70
2022-08-30T05:15:58.703Z,19.80
2022-08-30T05:19:00.726Z,19.70
2022-08-30T05:22:02.740Z,19.60
2022-08-30T05:25:06.267Z,19.60
2022-08-30T05:28:09.249Z,19.80
2022-08-30T05:31:17.689Z,19.70
2022-08-30T05:34:28.756Z,19.70
2022-08-30T05:37:30.738Z,19.70
2022-08-30T05:40:32.815Z,19.90
2022-08-30T05:43:35.415Z,19.80
2022-08-30T05:46:38.252Z,19.90
2022-08-30T05:49:40.221Z,20.00
2022-08-30T05:52:43.995Z,20.10
2022-08-30T05:55:46.072Z,20.00
2022-08-30T06:01:58.081Z,19.90
2022-08-30T06:05:01.885Z,20.20
2022-08-30T06:08:04.209Z,20.30
2022-08-30T06:11:06.501Z,20.60
2022-08-30T06:14:09.033Z,20.50
2022-08-30T06:17:12.066Z,20.50
2022-08-30T06:20:16.535Z,20.50
2022-08-30T06:23:19.246Z,21.00
2022-08-30T06:26:23.925Z,21.40
2022-08-30T06:29:26.006Z,21.70
2022-08-30T06:32:27.915Z,22.00
2022-08-30T06:35:37.989Z,22.40
2022-08-30T06:38:44.255Z,22.80
2022-08-30T06:41:46.413Z,23.10
2022-08-30T06:45:02.793Z,23.70
2022-08-30T06:48:12.930Z,24.30
2022-08-30T06:51:15.335Z,24.10
2022-08-30T06:54:17.453Z,23.60
2022-08-30T06:57:23.487Z,23.40
2022-08-30T07:00:25.638Z,23.40
2022-08-30T07:03:27.809Z,23.00
2022-08-30T07:06:30.596Z,23.00
2022-08-30T07:12:35.381Z,22.90
2022-08-30T07:15:40.420Z,23.20
2022-08-30T07:18:42.525Z,24.20
2022-08-30T07:21:44.719Z,24.40
2022-08-30T07:24:47.829Z,24.30
2022-08-30T07:27:51.212Z,23.70
2022-08-30T07:30:53.187Z,24.10
2022-08-30T07:33:55.963Z,24.50
2022-08-30T07:36:58.104Z,25.50
2022-08-30T07:40:00.237Z,25.50
2022-08-30T07:43:02.389Z,25.10
2022-08-30T07:46:07.224Z,24.70
2022-08-30T07:49:11.240Z,24.90
2022-08-30T07:52:13.526Z,25.50
2022-08-30T07:55:15.749Z,25.70
2022-08-30T07:58:18.343Z,26.00
2022-08-30T08:01:22.539Z,26.70
2022-08-30T08:04:24.611Z,26.30
2022-08-30T08:07:26.550Z,25.80
2022-08-30T08:10:28.717Z,26.10
2022-08-30T08:13:32.737Z,26.40
2022-08-30T08:16:38.965Z,26.00
2022-08-30T08:19:41.016Z,25.90
2022-08-30T08:22:43.788Z,26.00
2022-08-30T08:25:45.839Z,26.40
2022-08-30T08:28:48.092Z,27.10
2022-08-30T08:31:50.459Z,27.50
2022-08-30T08:34:52.558Z,27.50
2022-08-30T08:37:54.631Z,28.00
2022-08-30T08:41:25.478Z,28.60
2022-08-30T08:44:39.884Z,28.50
2022-08-30T08:47:57.213Z,28.90
2022-08-30T08:51:02.550Z,29.50
2022-08-30T08:54:21.413Z,29.30
2022-08-30T08:57:24.761Z,29.60
2022-08-30T09:00:26.997Z,29.40
2022-08-30T09:03:30.034Z,29.90
2022-08-30T09:06:50.833Z,30.00
2022-08-30T09:09:53.001Z,30.50
2022-08-30T09:12:59.771Z,29.90
2022-08-30T09:16:02.296Z,30.10
2022-08-30T09:19:04.382Z,29.70
2022-08-30T09:22:18.729Z,29.50
2022-08-30T09:25:30.846Z,30.20
2022-08-30T09:28:44.057Z,30.40
2022-08-30T09:32:01.291Z,30.50
2022-08-30T09:35:20.966Z,30.30
2022-08-30T09:38:33.535Z,29.70
2022-08-30T09:41:39.780Z,30.50
2022-08-30T09:44:42.611Z,30.90
2022-08-30T09:47:44.984Z,31.30
2022-08-30T09:50:55.002Z,31.30
2022-08-30T09:54:31.765Z,31.70
2022-08-30T09:57:55.676Z,31.70
2022-08-30T10:01:13.902Z,31.40
2022-08-30T10:04:43.767Z,30.40
2022-08-30T10:07:54.697Z,31.20
2022-08-30T10:11:07.139Z,31.70
2022-08-30T10:14:40.356Z,31.50
2022-08-30T10:18:01.982Z,31.60
2022-08-30T10:21:34.554Z,32.10
2022-08-30T10:24:42.735Z,32.20
2022-08-30T10:27:50.604Z,32.20
2022-08-30T10:31:00.697Z,32.10
2022-08-30T10:34:12.191Z,32.50
2022-08-30T10:37:27.146Z,32.40
2022-08-30T10:40:37.505Z,32.50
2022-08-30T10:43:54.805Z,32.60
2022-08-30T10:47:04.405Z,32.20
2022-08-30T11:03:32.240Z,32.40
2022-08-30T11:07:16.336Z,32.10
2022-08-30T11:10:20.908Z,32.00
2022-08-30T11:13:28.426Z,31.90
2022-08-30T11:16:43.497Z,32.30
2022-08-30T11:19:45.606Z,32.20
2022-08-30T11:23:20.976Z,31.80
2022-08-30T11:26:45.672Z,32.10
2022-08-30T11:29:48.276Z,31.90
2022-08-30T11:33:09.370Z,31.60
2022-08-30T11:36:37.350Z,31.20
2022-08-30T11:39:49.055Z,31.20
2022-08-30T11:42:53.407Z,31.00
2022-08-30T11:46:14.609Z,30.70
2022-08-30T11:49:19.452Z,30.80
2022-08-30T11:52:36.704Z,30.90
2022-08-30T11:56:16.245Z,31.00
2022-08-30T11:59:36.329Z,31.60
2022-08-30T12:02:53.029Z,31.20
2022-08-30T12:06:05.087Z,31.70
2022-08-30T12:09:11.284Z,31.90
2022-08-30T12:12:38.705Z,32.00
2022-08-30T12:16:17.969Z,32.10
2022-08-30T12:19:21.248Z,32.30
2022-08-30T12:22:23.695Z,32.10
2022-08-30T12:25:32.557Z,32.00
2022-08-30T12:28:34.442Z,31.80
2022-08-30T12:31:49.237Z,32.00
2022-08-30T12:35:01.203Z,31.90
2022-08-30T12:38:13.613Z,32.00
2022-08-30T12:41:20.271Z,31.90
2022-08-30T12:44:27.748Z,31.90
2022-08-30T12:47:44.040Z,31.80
2022-08-30T12:50:50.896Z,31.40
2022-08-30T12:53:52.977Z,31.20
2022-08-30T12:57:18.963Z,31.10
2022-08-30T13:00:37.982Z,31.50
2022-08-30T13:03:39.936Z,31.80
2022-08-30T13:06:50.392Z,31.70
2022-08-30T13:10:01.582Z,31.60
2022-08-30T13:13:06.973Z,31.70
2022-08-30T13:16:20.860Z,31.70
2022-08-30T13:19:33.636Z,31.70
2022-08-30T13:22:37.864Z,31.80
2022-08-30T13:25:40.369Z,31.70
2022-08-30T13:28:53.127Z,31.70
2022-08-30T13:31:56.167Z,31.80
2022-08-30T13:34:58.194Z,31.60
2022-08-30T13:38:01.583Z,31.70
2022-08-30T13:41:03.451Z,31.50
2022-08-30T13:44:11.174Z,31.50
2022-08-30T13:50:36.494Z,31.70
2022-08-30T13:53:54.406Z,31.70
2022-08-30T13:56:56.906Z,31.80
2022-08-30T13:59:58.851Z,32.00
2022-08-30T14:03:02.140Z,31.70
2022-08-30T14:06:31.847Z,31.50
2022-08-30T14:09:27.917Z,31.20
2022-08-30T14:16:26.585Z,31.70
2022-08-30T14:19:16.308Z,31.60
2022-08-30T14:22:20.435Z,31.50
2022-08-30T14:25:24.690Z,31.40
2022-08-30T14:28:26.921Z,31.50
2022-08-30T14:31:29.049Z,31.50
2022-08-30T14:34:33.716Z,31.50
2022-08-30T14:37:35.651Z,31.50
2022-08-30T14:40:37.540Z,31.40
2022-08-30T14:43:39.976Z,31.40
2022-08-30T14:46:43.474Z,31.40
2022-08-30T14:49:45.551Z,31.30
2022-08-30T14:52:48.325Z,31.10
2022-08-30T14:55:50.323Z,31.10
2022-08-30T14:58:54.824Z,31.00
2022-08-30T15:01:57.323Z,31.00
2022-08-30T15:04:59.252Z,31.30
2022-08-30T15:08:01.142Z,31.20
2022-08-30T15:11:08.647Z,31.30
2022-08-30T15:14:15.828Z,31.20
2022-08-30T15:17:18.054Z,31.30
2022-08-30T15:20:20.222Z,31.40
2022-08-30T15:23:22.870Z,31.40
2022-08-30T15:26:26.908Z,31.40
2022-08-30T15:29:32.004Z,31.40
2022-08-30T15:32:34.713Z,31.40
2022-08-30T15:35:36.621Z,31.20
2022-08-30T15:38:38.831Z,31.10
2022-08-30T15:41:44.214Z,31.10
2022-08-30T15:44:50.478Z,31.10
2022-08-30T15:47:52.598Z,31.10
2022-08-30T15:50:58.478Z,31.20
2022-08-30T15:54:00.442Z,31.10
2022-08-30T15:57:02.285Z,31.10
2022-08-30T16:00:08.535Z,31.00
2022-08-30T16:03:11.855Z,30.80
2022-08-30T16:06:16.318Z,30.70
2022-08-30T16:09:18.221Z,30.70
2022-08-30T16:12:23.722Z,30.50
2022-08-30T16:15:26.451Z,30.70
2022-08-30T16:18:28.400Z,30.60
2022-08-30T16:24:47.892Z,30.50
2022-08-30T16:27:49.826Z,30.50
2022-08-30T16:30:52.340Z,30.50
2022-08-30T16:33:55.126Z,30.40
2022-08-30T16:36:59.323Z,30.20
2022-08-30T16:40:01.589Z,30.10
2022-08-30T16:43:04.395Z,29.90
2022-08-30T16:46:11.814Z,30.00
2022-08-30T16:49:13.765Z,29.80
2022-08-30T16:52:15.932Z,29.60
2022-08-30T16:55:20.328Z,29.50
2022-08-30T16:58:24.625Z,29.60
2022-08-30T17:01:29.159Z,29.50
2022-08-30T17:04:31.242Z,29.50
2022-08-30T17:07:33.138Z,29.50
2022-08-30T17:10:35.234Z,29.40
2022-08-30T17:13:37.559Z,29.40
2022-08-30T17:16:41.435Z,29.20
2022-08-30T17:19:44.897Z,29.20
2022-08-30T17:22:46.771Z,29.30
2022-08-30T17:25:49.674Z,29.20
2022-08-30T17:28:51.914Z,29.00
2022-08-30T17:31:54.203Z,28.90
2022-08-30T17:34:56.070Z,28.90
2022-08-30T17:38:00.531Z,28.80
2022-08-30T17:41:09.219Z,28.60
2022-08-30T17:44:12.070Z,28.40
2022-08-30T17:47:14.007Z,28.20
2022-08-30T17:50:15.919Z,28.00
2022-08-30T17:53:21.409Z,27.80
2022-08-30T17:56:34.077Z,28.00
2022-08-30T17:59:38.199Z,28.00
2022-08-30T18:02:41.363Z,27.90
2022-08-30T18:05:43.365Z,27.50
2022-08-30T18:08:48.658Z,27.50
2022-08-30T18:11:56.221Z,27.40
2022-08-30T18:15:23.015Z,27.30
2022-08-30T18:18:25.157Z,27.10
2022-08-30T18:21:28.660Z,27.10
2022-08-30T18:24:31.564Z,27.00
2022-08-30T18:27:33.790Z,27.00
2022-08-30T18:30:41.368Z,26.90
2022-08-30T18:33:47.331Z,26.90
2022-08-30T18:36:49.243Z,27.00
2022-08-30T18:39:51.126Z,27.00
2022-08-30T18:42:52.965Z,26.90
2022-08-30T18:45:55.184Z,26.90
2022-08-30T18:49:03.615Z,27.00
2022-08-30T18:52:09.465Z,27.00
2022-08-30T18:55:11.324Z,26.90
2022-08-30T18:58:13.226Z,27.00
2022-08-30T19:01:22.770Z,26.80
2022-08-30T19:04:35.043Z,26.80
2022-08-30T19:07:37.931Z,26.80
2022-08-30T19:10:47.462Z,26.70
2022-08-30T19:13:50.063Z,26.50
2022-08-30T19:16:53.668Z,26.70
2022-08-30T19:19:55.795Z,26.70
2022-08-30T19:23:09.951Z,26.60
2022-08-30T19:26:22.302Z,26.60
2022-08-30T19:29:24.343Z,26.50
2022-08-30T19:32:26.471Z,26.60
2022-08-30T19:35:29.958Z,26.60
2022-08-30T19:38:34.880Z,26.60
2022-08-30T19:41:37.200Z,26.50
2022-08-30T19:44:39.326Z,26.60
2022-08-30T19:47:41.500Z,26.50
2022-08-30T19:50:43.438Z,26.50
2022-08-30T19:53:46.542Z,26.50
2022-08-30T19:56:48.405Z,26.40
2022-08-30T19:59:51.685Z,26.40
2022-08-30T20:02:53.562Z,26.20
2022-08-30T20:05:56.525Z,26.10
2022-08-30T20:08:59.898Z,26.20
2022-08-30T20:12:03.136Z,26.10
2022-08-30T20:15:07.721Z,26.00
2022-08-30T20:18:14.755Z,26.00
2022-08-30T20:21:17.034Z,25.90
2022-08-30T20:24:18.946Z,25.90
2022-08-30T20:27:20.812Z,25.80
2022-08-30T20:30:22.807Z,25.90
2022-08-30T20:33:25.747Z,26.00
2022-08-30T20:36:27.643Z,26.00
2022-08-30T20:39:31.038Z,25.90
2022-08-30T20:42:32.899Z,25.90
2022-08-30T20:45:35.019Z,25.90
2022-08-30T20:48:37.611Z,25.80
2022-08-30T20:51:39.774Z,25.80
2022-08-30T20:54:44.221Z,25.70
2022-08-30T20:57:46.097Z,25.50
2022-08-30T21:00:52.929Z,25.60
2022-08-30T21:03:54.799Z,25.60
2022-08-30T21:06:57.396Z,25.60
2022-08-30T21:10:07.001Z,25.50
2022-08-30T21:13:10.374Z,25.40
2022-08-30T21:16:12.513Z,25.50
2022-08-30T21:19:15.289Z,25.30
2022-08-30T21:22:17.238Z,25.20
2022-08-30T21:25:20.784Z,25.20
2022-08-30T21:28:22.620Z,25.00
2022-08-30T21:31:27.309Z,25.10
2022-08-30T21:34:29.240Z,25.00
2022-08-30T21:37:34.248Z,24.90
2022-08-30T21:40:38.101Z,24.80
2022-08-30T21:43:40.116Z,24.80
2022-08-30T21:46:42.028Z,24.80
2022-08-30T21:49:43.973Z,24.80
2022-08-30T21:52:45.815Z,24.70
2022-08-30T21:55:48.225Z,24.70
2022-08-30T21:58:50.709Z,24.50
2022-08-30T22:01:52.873Z,24.50
2022-08-30T22:04:54.988Z,24.40
2022-08-30T22:07:56.895Z,24.40
2022-08-30T22:10:58.876Z,24.40
2022-08-30T22:14:01.567Z,24.40
2022-08-30T22:17:03.666Z,24.40
2022-08-30T22:20:06.371Z,24.50
2022-08-30T22:23:08.288Z,24.40
2022-08-30T22:26:12.823Z,24.60
2022-08-30T22:29:15.187Z,24.50
2022-08-30T22:32:18.357Z,24.60
2022-08-30T22:35:20.454Z,24.70
2022-08-30T22:38:26.110Z,24.70
2022-08-30T22:41:31.044Z,24.70
2022-08-30T22:44:33.474Z,24.70
2022-08-30T22:47:35.481Z,24.80
2022-08-30T22:50:37.989Z,24.70
2022-08-30T22:53:40.515Z,24.80
2022-08-30T22:56:42.988Z,24.80
2022-08-30T22:59:44.902Z,24.80
2022-08-30T23:02:51.952Z,24.80
2022-08-30T23:05:53.822Z,24.90
2022-08-30T23:08:56.334Z,25.00
2022-08-30T23:11:58.213Z,24.80
2022-08-30T23:15:00.164Z,24.80
2022-08-30T23:18:02.485Z,24.90
2022-08-30T23:21:14.368Z,24.90
2022-08-30T23:24:16.253Z,24.60
2022-08-30T23:27:18.222Z,24.40
2022-08-30T23:30:22.824Z,24.10
2022-08-30T23:33:24.769Z,23.70
2022-08-30T23:36:26.656Z,23.50
2022-08-30T23:39:28.515Z,23.00
2022-08-30T23:42:30.505Z,23.00
2022-08-30T23:45:32.558Z,22.90
2022-08-30T23:48:34.642Z,22.90
2022-08-30T23:51:37.892Z,22.90
2022-08-30T23:54:39.818Z,22.80
2022-08-30T23:57:41.793Z,22.70
